Flugplatz Uetersen/Heist

METAR EDHI TAF EDHI
5 °C
°C
-
°C
16m
Edad
00:05:35
LT
23:05
UTC
0 ft

2.000

4.000

6.000

8.000

10.000

FEW 2.600
BKN 5.500
BKN 6.300
VFR
<?= Yii::t('app', 'Wind direction') ?> <?= Yii::t('app', 'of'); ?>
270°
08:07
Amanecer
81%
Humedad
Cizalladura del viento
Cerrado/Nieve
Alcance visual RWY
Estado de la RWY
Visibilidad vert.
Visibilidad mínima
CAVOK
Tendencia
Corrección
Informe especial
1011 hPa
QNH
METAR EDHI 312250Z AUTO 27021G33KT 9999 // FEW026/// BKN055/// BKN063/// 05/02 Q1011
Muy nuboso
0 kt
0 kt
10 km+
Visibilidad
5.500 ft
Cielo nuboso
21-33 kt
Viento
metar-taf.com/EDHE

Metar-Taf.com

Decodificador visual

Nosotros y terceros seguimos tu comportamiento en Internet en nuestro sitio web con cookies. Si continúas, asumimos que estás de acuerdo con nuestra Política de cookies.